Time,TemperatureF,DewpointF,PressureIn,WindDirection,WindDirectionDegrees,WindSpeedMPH,WindSpeedGustMPH,Humidity,HourlyPrecipIn,Conditions,Clouds,dailyrainin,SoftwareType,DateUTC
2013-10-29 00:05:00,70.0,69.4,29.93,South,180,4.3,-999.0,98,-99.99,,,0.00,Acu-Link.com,2013-10-29 05:05:00,
2013-10-29 00:20:00,70.2,69.6,29.93,South,180,6.3,-999.0,98,-99.99,,,0.00,Acu-Link.com,2013-10-29 05:20:00,
2013-10-29 00:35:00,70.0,69.4,29.94,SSE,157,6.7,-999.0,98,-99.99,,,0.00,Acu-Link.com,2013-10-29 05:35:00,
2013-10-29 00:51:00,69.6,69.0,29.94,South,180,6.7,-999.0,98,-99.99,,,0.00,Acu-Link.com,2013-10-29 05:51:00,
2013-10-29 01:06:00,69.4,68.8,29.94,SSW,202,3.1,-999.0,98,-99.99,,,0.00,Acu-Link.com,2013-10-29 06:06:00,
2013-10-29 01:21:00,69.4,68.8,29.94,SSW,202,5.8,-999.0,98,-99.99,,,0.00,Acu-Link.com,2013-10-29 06:21:00,
2013-10-29 01:36:00,69.1,68.5,29.94,South,180,7.4,-999.0,98,-99.99,,,0.00,Acu-Link.com,2013-10-29 06:36:00,
2013-10-29 01:51:00,68.7,68.1,29.93,South,180,4.7,-999.0,98,-99.99,,,0.00,Acu-Link.com,2013-10-29 06:51:00,
2013-10-29 02:07:00,68.5,68.0,29.93,SSE,157,3.8,-999.0,98,-99.99,,,0.00,Acu-Link.com,2013-10-29 07:07:00,
2013-10-29 02:22:00,68.5,68.0,29.93,South,180,3.8,-999.0,98,-99.99,,,0.00,Acu-Link.com,2013-10-29 07:22:00,
2013-10-29 02:37:00,68.5,68.0,29.93,SSW,202,3.8,-999.0,98,-99.99,,,0.00,Acu-Link.com,2013-10-29 07:37:00,
2013-10-29 02:52:00,68.4,67.8,29.92,South,180,6.3,-999.0,98,-99.99,,,0.00,Acu-Link.com,2013-10-29 07:52:00,
2013-10-29 03:07:00,68.4,67.8,29.93,South,180,3.8,-999.0,98,-99.99,,,0.00,Acu-Link.com,2013-10-29 08:07:00,
2013-10-29 03:23:00,68.4,67.8,29.93,ESE,112,1.6,-999.0,98,-99.99,,,0.00,Acu-Link.com,2013-10-29 08:23:00,
2013-10-29 03:38:00,68.5,68.0,29.92,ESE,112,6.3,-999.0,98,-99.99,,,0.00,Acu-Link.com,2013-10-29 08:38:00,
2013-10-29 03:53:00,68.9,68.3,29.92,SSE,157,3.1,-999.0,98,-99.99,,,0.00,Acu-Link.com,2013-10-29 08:53:00,
2013-10-29 04:08:00,68.9,68.3,29.92,South,180,4.7,-999.0,98,-99.99,,,0.00,Acu-Link.com,2013-10-29 09:08:00,
2013-10-29 04:23:00,68.9,68.3,29.92,South,180,4.3,-999.0,98,-99.99,,,0.00,Acu-Link.com,2013-10-29 09:23:00,
2013-10-29 04:38:00,69.1,68.5,29.92,SW,225,5.1,-999.0,98,-99.99,,,0.00,Acu-Link.com,2013-10-29 09:38:00,
2013-10-29 04:53:00,69.1,68.5,29.93,SSE,157,2.7,-999.0,98,-99.99,,,0.00,Acu-Link.com,2013-10-29 09:53:00,
2013-10-29 05:08:00,68.9,68.3,29.93,South,180,3.1,-999.0,98,-99.99,,,0.00,Acu-Link.com,2013-10-29 10:08:00,
2013-10-29 05:24:00,68.5,68.0,29.93,South,180,2.7,-999.0,98,-99.99,,,0.00,Acu-Link.com,2013-10-29 10:24:00,
2013-10-29 05:39:00,68.4,67.8,29.94,SSW,202,4.3,-999.0,98,-99.99,,,0.00,Acu-Link.com,2013-10-29 10:39:00,
2013-10-29 05:54:00,68.2,67.6,29.93,South,180,3.8,-999.0,98,-99.99,,,0.00,Acu-Link.com,2013-10-29 10:54:00,
2013-10-29 06:09:00,68.0,67.4,29.94,South,180,1.6,-999.0,98,-99.99,,,0.00,Acu-Link.com,2013-10-29 11:09:00,
2013-10-29 06:25:00,68.0,67.4,29.94,SSE,157,0.0,-999.0,98,-99.99,,,0.00,Acu-Link.com,2013-10-29 11:25:00,
2013-10-29 06:40:00,68.2,67.6,29.94,ESE,112,1.6,-999.0,98,-99.99,,,0.00,Acu-Link.com,2013-10-29 11:40:00,
2013-10-29 06:55:00,68.2,67.6,29.94,South,180,2.7,-999.0,98,-99.99,,,0.00,Acu-Link.com,2013-10-29 11:55:00,
2013-10-29 07:10:00,68.4,67.8,29.95,ESE,112,2.7,-999.0,98,-99.99,,,0.00,Acu-Link.com,2013-10-29 12:10:00,
2013-10-29 07:25:00,68.4,67.8,29.96,ESE,112,2.7,-999.0,98,-99.99,,,0.00,Acu-Link.com,2013-10-29 12:25:00,
2013-10-29 07:41:00,68.4,67.8,29.95,SE,135,1.6,-999.0,98,-99.99,,,0.00,Acu-Link.com,2013-10-29 12:41:00,
2013-10-29 07:56:00,68.4,67.8,29.95,South,180,2.2,-999.0,98,-99.99,,,0.00,Acu-Link.com,2013-10-29 12:56:00,
2013-10-29 08:11:00,68.4,67.8,29.95,ESE,112,0.0,-999.0,98,-99.99,,,0.00,Acu-Link.com,2013-10-29 13:11:00,
2013-10-29 08:26:00,68.5,68.0,29.96,SE,135,0.0,-999.0,98,-99.99,,,0.00,Acu-Link.com,2013-10-29 13:26:00,
2013-10-29 08:41:00,68.9,68.3,29.96,SSE,157,0.0,-999.0,98,-99.99,,,0.00,Acu-Link.com,2013-10-29 13:41:00,
2013-10-29 08:57:00,69.1,68.5,29.96,East,90,1.1,-999.0,98,-99.99,,,0.00,Acu-Link.com,2013-10-29 13:57:00,
2013-10-29 09:12:00,69.3,68.7,29.97,ESE,112,0.0,-999.0,98,-99.99,,,0.00,Acu-Link.com,2013-10-29 14:12:00,
2013-10-29 09:27:00,69.8,69.2,29.97,South,180,1.6,-999.0,98,-99.99,,,0.00,Acu-Link.com,2013-10-29 14:27:00,
2013-10-29 09:42:00,71.4,70.8,29.97,SSW,202,3.8,-999.0,98,-99.99,,,0.00,Acu-Link.com,2013-10-29 14:42:00,
2013-10-29 09:57:00,72.7,72.1,29.98,WSW,247,3.8,-999.0,98,-99.99,,,0.00,Acu-Link.com,2013-10-29 14:57:00,
2013-10-29 10:13:00,73.0,72.4,29.98,South,180,8.3,-999.0,98,-99.99,,,0.00,Acu-Link.com,2013-10-29 15:13:00,
2013-10-29 10:28:00,73.8,73.2,29.97,SE,135,5.1,-999.0,98,-99.99,,,0.00,Acu-Link.com,2013-10-29 15:28:00,
2013-10-29 10:43:00,74.1,73.5,29.98,South,180,6.3,-999.0,98,-99.99,,,0.00,Acu-Link.com,2013-10-29 15:43:00,
2013-10-29 10:58:00,75.4,74.8,29.97,SSE,157,4.7,-999.0,98,-99.99,,,0.00,Acu-Link.com,2013-10-29 15:58:00,
2013-10-29 11:14:00,74.8,74.2,29.97,South,180,4.7,-999.0,98,-99.99,,,0.00,Acu-Link.com,2013-10-29 16:14:00,
2013-10-29 11:29:00,75.7,75.1,29.97,South,180,4.3,-999.0,98,-99.99,,,0.00,Acu-Link.com,2013-10-29 16:29:00,
2013-10-29 11:44:00,76.6,76.0,29.96,SSE,157,4.7,-999.0,98,-99.99,,,0.00,Acu-Link.com,2013-10-29 16:44:00,
2013-10-29 11:59:00,76.5,75.9,29.96,SSE,157,3.1,-999.0,98,-99.99,,,0.00,Acu-Link.com,2013-10-29 16:59:00,
2013-10-29 12:14:00,77.2,76.6,29.95,SSW,202,5.8,-999.0,98,-99.99,,,0.00,Acu-Link.com,2013-10-29 17:14:00,
2013-10-29 12:30:00,77.0,76.4,29.95,SSW,202,6.7,-999.0,98,-99.99,,,0.00,Acu-Link.com,2013-10-29 17:30:00,
2013-10-29 12:45:00,78.3,77.6,29.94,SSE,157,9.4,-999.0,98,-99.99,,,0.00,Acu-Link.com,2013-10-29 17:45:00,
2013-10-29 13:00:00,78.4,77.8,29.94,SSW,202,4.7,-999.0,98,-99.99,,,0.00,Acu-Link.com,2013-10-29 18:00:00,
2013-10-29 13:15:00,78.6,78.0,29.93,South,180,6.3,-999.0,98,-99.99,,,0.00,Acu-Link.com,2013-10-29 18:15:00,
2013-10-29 13:30:00,78.4,77.8,29.93,ESE,112,4.7,-999.0,98,-99.99,,,0.00,Acu-Link.com,2013-10-29 18:30:00,
2013-10-29 13:46:00,78.6,78.0,29.92,SE,135,9.4,-999.0,98,-99.99,,,0.00,Acu-Link.com,2013-10-29 18:46:00,
2013-10-29 14:01:00,78.4,77.8,29.92,SSW,202,6.3,-999.0,98,-99.99,,,0.00,Acu-Link.com,2013-10-29 19:01:00,
2013-10-29 14:16:00,79.3,78.7,29.91,SSE,157,8.3,-999.0,98,-99.99,,,0.00,Acu-Link.com,2013-10-29 19:16:00,
2013-10-29 14:31:00,78.8,78.2,29.90,SSW,202,8.3,-999.0,98,-99.99,,,0.00,Acu-Link.com,2013-10-29 19:31:00,
2013-10-29 14:46:00,78.8,78.2,29.90,South,180,5.1,-999.0,98,-99.99,,,0.00,Acu-Link.com,2013-10-29 19:46:00,
2013-10-29 15:02:00,77.7,77.1,29.90,SSE,157,6.7,-999.0,98,-99.99,,,0.00,Acu-Link.com,2013-10-29 20:02:00,
2013-10-29 15:17:00,78.4,77.8,29.89,South,180,5.1,-999.0,98,-99.99,,,0.00,Acu-Link.com,2013-10-29 20:17:00,
2013-10-29 15:32:00,78.6,78.0,29.89,SE,135,4.3,-999.0,98,-99.99,,,0.00,Acu-Link.com,2013-10-29 20:32:00,
2013-10-29 15:47:00,78.4,77.8,29.88,South,180,5.8,-999.0,98,-99.99,,,0.00,Acu-Link.com,2013-10-29 20:47:00,
2013-10-29 16:03:00,78.8,78.2,29.88,South,180,4.7,-999.0,98,-99.99,,,0.00,Acu-Link.com,2013-10-29 21:03:00,
2013-10-29 16:18:00,78.3,77.6,29.88,SSE,157,4.7,-999.0,98,-99.99,,,0.00,Acu-Link.com,2013-10-29 21:18:00,
2013-10-29 16:33:00,78.8,78.2,29.88,SE,135,2.7,-999.0,98,-99.99,,,0.00,Acu-Link.com,2013-10-29 21:33:00,
2013-10-29 16:48:00,79.5,78.9,29.88,SSW,202,2.2,-999.0,98,-99.99,,,0.00,Acu-Link.com,2013-10-29 21:48:00,
2013-10-29 17:03:00,79.3,78.7,29.88,ENE,67,0.0,-999.0,98,-99.99,,,0.00,Acu-Link.com,2013-10-29 22:03:00,
2013-10-29 17:19:00,78.6,78.0,29.89,ESE,112,0.0,-999.0,98,-99.99,,,0.00,Acu-Link.com,2013-10-29 22:19:00,
2013-10-29 17:34:00,78.3,77.6,29.89,ESE,112,0.0,-999.0,98,-99.99,,,0.00,Acu-Link.com,2013-10-29 22:34:00,
2013-10-29 17:49:00,77.7,77.1,29.88,South,180,0.0,-999.0,98,-99.99,,,0.00,Acu-Link.com,2013-10-29 22:49:00,
2013-10-29 18:04:00,77.5,76.9,29.88,SSE,157,0.0,-999.0,98,-99.99,,,0.00,Acu-Link.com,2013-10-29 23:04:00,
2013-10-29 18:19:00,77.0,76.4,29.88,SSE,157,1.6,-999.0,98,-99.99,,,0.00,Acu-Link.com,2013-10-29 23:19:00,
2013-10-29 18:35:00,76.3,75.7,29.88,SSE,157,2.7,-999.0,98,-99.99,,,0.00,Acu-Link.com,2013-10-29 23:35:00,
2013-10-29 18:50:00,75.6,75.0,29.88,South,180,0.0,-999.0,98,-99.99,,,0.00,Acu-Link.com,2013-10-29 23:50:00,
2013-10-29 19:05:00,74.8,74.2,29.89,ESE,112,4.7,-999.0,98,-99.99,,,0.00,Acu-Link.com,2013-10-30 00:05:00,
2013-10-29 19:20:00,74.5,73.9,29.90,SSE,157,2.7,-999.0,98,-99.99,,,0.00,Acu-Link.com,2013-10-30 00:20:00,
2013-10-29 19:35:00,74.3,73.7,29.90,ESE,112,2.2,-999.0,98,-99.99,,,0.00,Acu-Link.com,2013-10-30 00:35:00,
2013-10-29 19:51:00,74.3,73.7,29.91,SSE,157,1.6,-999.0,98,-99.99,,,0.00,Acu-Link.com,2013-10-30 00:51:00,
2013-10-29 20:06:00,74.1,73.5,29.91,SSE,157,2.2,-999.0,98,-99.99,,,0.00,Acu-Link.com,2013-10-30 01:06:00,
2013-10-29 20:21:00,73.9,73.3,29.91,ESE,112,3.8,-999.0,98,-99.99,,,0.00,Acu-Link.com,2013-10-30 01:21:00,
2013-10-29 20:36:00,73.9,73.3,29.92,South,180,3.8,-999.0,98,-99.99,,,0.00,Acu-Link.com,2013-10-30 01:36:00,
2013-10-29 20:51:00,73.8,73.2,29.91,SSE,157,3.1,-999.0,98,-99.99,,,0.00,Acu-Link.com,2013-10-30 01:51:00,
2013-10-29 21:07:00,73.6,73.0,29.91,South,180,3.1,-999.0,98,-99.99,,,0.00,Acu-Link.com,2013-10-30 02:07:00,
2013-10-29 21:22:00,73.6,73.0,29.92,South,180,3.8,-999.0,98,-99.99,,,0.00,Acu-Link.com,2013-10-30 02:22:00,
2013-10-29 21:37:00,73.6,73.0,29.92,SSE,157,1.6,-999.0,98,-99.99,,,0.00,Acu-Link.com,2013-10-30 02:37:00,
2013-10-29 21:52:00,73.6,73.0,29.91,SSW,202,3.1,-999.0,98,-99.99,,,0.00,Acu-Link.com,2013-10-30 02:52:00,
2013-10-29 22:07:00,73.4,72.8,29.91,SSE,157,2.7,-999.0,98,-99.99,,,0.00,Acu-Link.com,2013-10-30 03:07:00,
2013-10-29 22:23:00,73.6,73.0,29.93,ESE,112,6.3,-999.0,98,-99.99,,,0.00,Acu-Link.com,2013-10-30 03:23:00,
2013-10-29 22:38:00,73.4,72.8,29.91,South,180,4.3,-999.0,98,-99.99,,,0.00,Acu-Link.com,2013-10-30 03:38:00,
2013-10-29 22:53:00,72.9,72.3,29.93,SSE,157,2.2,-999.0,98,-99.99,,,0.00,Acu-Link.com,2013-10-30 03:53:00,
2013-10-29 23:08:00,72.7,72.1,29.92,SSE,157,3.1,-999.0,98,-99.99,,,0.00,Acu-Link.com,2013-10-30 04:08:00,
2013-10-29 23:23:00,71.4,70.8,29.92,ESE,112,2.7,-999.0,98,-99.99,,,0.00,Acu-Link.com,2013-10-30 04:23:00,
2013-10-29 23:39:00,71.2,70.6,29.93,SSE,157,3.8,-999.0,98,-99.99,,,0.00,Acu-Link.com,2013-10-30 04:39:00,
2013-10-29 23:54:00,71.1,70.5,29.93,SW,225,4.3,-999.0,98,-99.99,,,0.00,Acu-Link.com,2013-10-30 04:54:00,